TAF/METAR LISTING

Current time:9/21/9:36 Z
Looking Back to:9/21/09:36 Z, going back 0 hour(s)

METAR:

PAFA 210853Z 20004KT 10SM -RA BKN014 BKN037 OVC100 07/06 A2915
RMK AO2 SLP875 P0000 60002 T00720061 401170067 53010 $ =

______________________________________

TAF:
TAFAFA
TAF AMD
PAFA 210932Z 2110/2212 20004KT P6SM -RA BKN014 BKN035 OVC100
FM211500 24010KT 4SM -RA BR OVC008
FM220000 24012KT 6SM -SHRA BR SCT008 BKN015 OVC025 =